Time;durP1;ratioP1;P1;durP2;ratioP2;P2;SDS_P1;SDS_P2;PMS_P1;PMS_P2;Temp;Humidity;BMP_temperature;BMP_pressure;BME280_temperature;BME280_humidity;BME280_pressure;Samples;Min_cycle;Max_cycle;Signal;HPM_P1;HPM_P2
2022/11/01 00:54:17;;;;;;;;;;;;;;;;;;;;;
2022/11/01 01:48:43;;;;;;;46.80;25.50;;;;;;;10.45;100.00;95407.81;4846838;29;20668;-80
2022/11/01 01:51:14;;;;;;;44.27;23.73;;;;;;;10.55;100.00;95403.03;4931308;29;20237;-79
2022/11/01 01:53:45;;;;;;;42.20;23.93;;;;;;;10.62;100.00;95403.81;4951757;28;20208;-79
2022/11/01 01:56:16;;;;;;;36.47;23.63;;;;;;;10.69;100.00;95407.22;4992990;28;20188;-80
2022/11/01 01:58:48;;;;;;;40.93;22.97;;;;;;;10.72;100.00;95396.44;5011159;28;20847;-79
2022/11/01 02:01:15;;;;;;;40.30;24.10;;;;;;;10.85;100.00;95405.25;5010396;28;20861;-81
2022/11/01 02:03:44;;;;;;;42.83;23.27;;;;;;;10.89;100.00;95404.63;5009854;28;20199;-79
2022/11/01 02:06:13;;;;;;;43.47;23.70;;;;;;;10.90;100.00;95406.25;5008391;28;20218;-78
2022/11/01 02:08:43;;;;;;;39.07;22.90;;;;;;;11.00;100.00;95411.00;5010892;28;20207;-78
2022/11/01 02:11:12;;;;;;;31.57;21.57;;;;;;;10.97;100.00;95399.22;5010765;28;20184;-80
2022/11/01 02:13:39;;;;;;;39.00;22.27;;;;;;;11.02;99.88;95406.44;5006694;28;20196;-75
2022/11/01 02:16:31;;;;;;;39.43;22.63;;;;;;;10.95;99.54;95401.22;5009303;28;20203;-75
2022/11/01 02:19:20;;;;;;;33.47;20.57;;;;;;;10.90;100.00;95405.44;5008353;28;20198;-76
2022/11/01 02:21:55;;;;;;;34.20;20.47;;;;;;;10.83;100.00;95401.03;5009825;28;20191;-75
2022/11/01 02:24:57;;;;;;;34.40;20.33;;;;;;;10.73;100.00;95410.25;5012398;28;20183;-75
2022/11/01 02:27:30;;;;;;;32.80;21.00;;;;;;;10.34;100.00;95405.00;5008036;28;20574;-75
2022/11/01 02:30:11;;;;;;;32.30;20.97;;;;;;;9.99;100.00;95410.28;5012963;28;20192;-75
2022/11/01 02:32:48;;;;;;;36.77;22.13;;;;;;;10.00;100.00;95413.69;5011987;28;20211;-75
2022/11/01 02:35:23;;;;;;;47.67;24.87;;;;;;;10.10;100.00;95416.72;5011732;28;20207;-75
2022/11/01 02:37:54;;;;;;;38.13;21.43;;;;;;;10.18;100.00;95419.16;5010305;28;20274;-75
2022/11/01 02:40:27;;;;;;;33.73;20.77;;;;;;;10.25;100.00;95415.56;5013118;28;20198;-76
2022/11/01 02:43:01;;;;;;;35.70;20.60;;;;;;;10.37;100.00;95422.78;5011163;28;20198;-76
2022/11/01 02:45:34;;;;;;;39.20;21.40;;;;;;;10.44;100.00;95428.81;5021555;28;20250;-75
2022/11/01 02:48:04;;;;;;;35.37;21.50;;;;;;;10.52;100.00;95429.41;5032540;28;20238;-75
2022/11/01 02:50:36;;;;;;;35.90;22.00;;;;;;;10.57;100.00;95429.63;5030177;28;20195;-77
2022/11/01 02:53:04;;;;;;;38.63;22.40;;;;;;;10.58;100.00;95428.63;5032349;28;20218;-75
2022/11/01 02:55:32;;;;;;;36.20;21.97;;;;;;;10.56;100.00;95435.03;5032450;28;20278;-75
2022/11/01 02:58:01;;;;;;;35.80;21.50;;;;;;;10.14;100.00;95428.34;5032429;28;20195;-75
2022/11/01 03:00:31;;;;;;;35.63;20.80;;;;;;;9.79;100.00;95437.16;5029797;28;20187;-76
2022/11/01 03:03:07;;;;;;;37.47;21.07;;;;;;;9.38;100.00;95430.16;5032187;28;20195;-75
2022/11/01 03:05:41;;;;;;;35.77;21.67;;;;;;;9.42;100.00;95428.81;5030085;28;20246;-74
2022/11/01 03:08:10;;;;;;;40.07;22.40;;;;;;;9.55;100.00;95430.69;5032013;28;20222;-75
2022/11/01 03:10:51;;;;;;;34.47;21.27;;;;;;;9.74;100.00;95435.16;5032790;28;21484;-78
2022/11/01 03:13:31;;;;;;;36.03;22.57;;;;;;;9.87;100.00;95439.63;5031205;28;20736;-80
2022/11/01 03:16:08;;;;;;;38.60;22.10;;;;;;;9.93;100.00;95438.81;5033066;28;20646;-79
2022/11/01 03:18:43;;;;;;;35.97;21.10;;;;;;;9.98;100.00;95442.44;5030439;28;20293;-76
2022/11/01 03:21:17;;;;;;;40.87;22.23;;;;;;;10.10;100.00;95442.69;5029397;28;20627;-76
2022/11/01 03:23:51;;;;;;;36.63;21.73;;;;;;;10.16;100.00;95442.72;5031834;28;20542;-76
2022/11/01 03:26:25;;;;;;;32.10;20.43;;;;;;;10.05;100.00;95443.25;5031018;28;20242;-77
2022/11/01 03:28:58;;;;;;;34.17;20.80;;;;;;;9.80;100.00;95446.56;5030201;28;20260;-77
2022/11/01 03:31:30;;;;;;;35.67;20.23;;;;;;;9.50;100.00;95446.81;5032383;28;20584;-77
2022/11/01 03:34:02;;;;;;;35.27;21.63;;;;;;;9.44;100.00;95442.38;5031858;28;20187;-77
2022/11/01 03:36:32;;;;;;;39.67;21.53;;;;;;;9.50;100.00;95444.22;5028951;28;20218;-78
2022/11/01 03:39:04;;;;;;;33.30;19.93;;;;;;;9.54;100.00;95440.25;5031937;28;20273;-77
2022/11/01 03:41:36;;;;;;;33.97;20.90;;;;;;;9.62;100.00;95439.28;5032053;28;20252;-78
2022/11/01 03:44:03;;;;;;;35.63;20.70;;;;;;;9.60;100.00;95431.72;5032423;28;20195;-77
2022/11/01 03:46:30;;;;;;;43.00;20.27;;;;;;;9.72;100.00;95442.34;5029425;28;20214;-79
2022/11/01 03:48:57;;;;;;;39.97;21.13;;;;;;;9.82;100.00;95444.56;5031797;28;20218;-77
2022/11/01 03:51:25;;;;;;;34.60;20.13;;;;;;;9.94;100.00;95456.81;5031707;28;20221;-77
2022/11/01 03:53:52;;;;;;;34.73;20.50;;;;;;;10.04;100.00;95451.25;5031440;28;20577;-78
2022/11/01 03:56:19;;;;;;;35.27;19.97;;;;;;;10.06;100.00;95444.88;5031838;28;20198;-77
2022/11/01 03:58:46;;;;;;;33.80;20.60;;;;;;;10.08;100.00;95442.88;5032056;28;20218;-79
2022/11/01 04:01:15;;;;;;;41.17;20.67;;;;;;;9.98;100.00;95431.25;5031446;28;20195;-78
2022/11/01 04:03:42;;;;;;;33.73;19.80;;;;;;;10.10;100.00;95440.09;5031437;28;20203;-78
2022/11/01 04:06:09;;;;;;;32.80;19.87;;;;;;;10.07;100.00;95427.50;5028730;28;20218;-78
2022/11/01 04:08:38;;;;;;;33.30;19.43;;;;;;;10.14;100.00;95446.50;5030796;28;20700;-78
2022/11/01 04:11:05;;;;;;;35.90;20.60;;;;;;;10.15;100.00;95446.34;5031107;28;20202;-75
2022/11/01 04:13:32;;;;;;;33.37;19.23;;;;;;;10.12;100.00;95438.91;5030680;28;20202;-80
2022/11/01 04:21:31;;;;;;;40.40;20.87;;;;;;;8.44;100.00;95435.84;5032415;28;20272;-80
2022/11/01 04:23:59;;;;;;;37.13;19.87;;;;;;;8.52;100.00;95436.53;5032267;28;20198;-79
2022/11/01 04:26:26;;;;;;;38.73;20.07;;;;;;;8.50;100.00;95440.28;5031312;28;20249;-77
2022/11/01 04:28:59;;;;;;;41.30;20.47;;;;;;;8.57;100.00;95433.38;5030241;28;20199;-76
2022/11/01 04:31:28;;;;;;;38.07;20.03;;;;;;;8.52;100.00;95439.13;5031612;28;20198;-79
2022/11/01 04:33:55;;;;;;;43.57;20.80;;;;;;;8.34;100.00;95438.72;5032346;28;20954;-80
2022/11/01 04:36:22;;;;;;;34.57;21.07;;;;;;;8.38;100.00;95434.00;5031167;28;20186;-80
2022/11/01 04:38:50;;;;;;;38.27;21.37;;;;;;;8.52;100.00;95440.91;5021651;28;20198;-76
2022/11/01 04:41:21;;;;;;;35.23;20.50;;;;;;;8.69;100.00;95433.66;5030868;28;20585;-81
2022/11/01 04:43:48;;;;;;;41.57;21.53;;;;;;;8.82;100.00;95441.56;5030743;28;20191;-79
2022/11/01 04:46:15;;;;;;;48.60;20.70;;;;;;;8.92;100.00;95447.22;5029376;28;20519;-80
2022/11/01 04:48:42;;;;;;;42.37;21.67;;;;;;;8.94;100.00;95445.25;5030886;28;20218;-79
2022/11/01 04:51:10;;;;;;;44.77;24.37;;;;;;;8.73;100.00;95446.06;5031588;28;20717;-80
2022/11/01 04:53:37;;;;;;;37.17;23.90;;;;;;;8.37;100.00;95429.78;5031380;28;20202;-80
2022/11/01 04:56:07;;;;;;;51.60;24.33;;;;;;;8.51;100.00;95444.50;5031799;28;20199;-80
2022/11/01 04:58:36;;;;;;;47.23;26.67;;;;;;;8.59;100.00;95446.94;5031904;28;20623;-80
2022/11/01 05:01:06;;;;;;;47.43;28.00;;;;;;;8.74;100.00;95446.88;5031798;28;20202;-79
2022/11/01 05:03:33;;;;;;;53.33;27.50;;;;;;;8.86;100.00;95458.34;5031518;28;20223;-79
2022/11/01 05:06:01;;;;;;;45.97;27.63;;;;;;;8.96;100.00;95451.03;5031503;28;20230;-78
2022/11/01 05:08:28;;;;;;;55.67;29.43;;;;;;;9.08;100.00;95462.50;5031458;28;20662;-79
2022/11/01 05:10:55;;;;;;;51.17;28.83;;;;;;;9.12;100.00;95461.94;5031355;28;20195;-80
2022/11/01 05:13:23;;;;;;;58.93;29.20;;;;;;;9.19;100.00;95456.00;5013193;28;20925;-79
2022/11/01 05:15:51;;;;;;;51.20;28.57;;;;;;;9.25;100.00;95461.22;5012843;28;20199;-80
2022/11/01 05:18:17;;;;;;;47.10;28.23;;;;;;;9.38;100.00;95468.31;5031644;28;20195;-79
2022/11/01 05:20:44;;;;;;;52.07;27.53;;;;;;;9.38;100.00;95463.88;5031793;28;20198;-80
2022/11/01 05:23:11;;;;;;;46.47;27.70;;;;;;;9.25;100.00;95476.78;5031537;28;20195;-79
2022/11/01 05:25:38;;;;;;;48.23;27.80;;;;;;;8.78;100.00;95454.09;5031614;28;20222;-80
2022/11/01 05:28:10;;;;;;;56.57;28.50;;;;;;;8.69;100.00;95470.75;5031455;28;20195;-79
2022/11/01 05:30:39;;;;;;;48.80;29.57;;;;;;;8.85;100.00;95475.69;5030990;28;20246;-79
2022/11/01 05:33:08;;;;;;;46.83;28.00;;;;;;;9.00;100.00;95475.59;5031434;28;20207;-79
2022/11/01 05:35:36;;;;;;;53.73;28.77;;;;;;;9.12;100.00;95479.28;5030814;28;20569;-77
2022/11/01 05:38:05;;;;;;;50.90;28.50;;;;;;;9.21;100.00;95477.34;5030564;28;20191;-77
2022/11/01 05:40:33;;;;;;;50.07;28.53;;;;;;;9.26;100.00;95480.19;5028324;28;20195;-76
2022/11/01 05:43:00;;;;;;;53.43;28.77;;;;;;;9.35;100.00;95477.25;5030000;28;20195;-75
2022/11/01 05:45:27;;;;;;;62.57;29.70;;;;;;;9.55;100.00;95491.13;5028890;28;20720;-76
2022/11/01 05:47:55;;;;;;;57.03;29.13;;;;;;;9.59;100.00;95484.59;5029565;28;20642;-76
2022/11/01 05:50:23;;;;;;;58.43;31.27;;;;;;;9.63;100.00;95480.63;5030064;28;20654;-77
2022/11/01 05:52:50;;;;;;;51.27;29.93;;;;;;;9.69;100.00;95482.47;5029458;28;20187;-76
2022/11/01 05:55:17;;;;;;;55.57;29.93;;;;;;;9.85;100.00;95488.31;5029778;28;20194;-76
2022/11/01 05:57:44;;;;;;;52.50;27.97;;;;;;;9.94;100.00;95500.94;5032185;28;20578;-76
2022/11/01 06:00:12;;;;;;;54.53;28.77;;;;;;;10.01;100.00;95494.00;5033310;28;20317;-79
2022/11/01 06:02:39;;;;;;;57.53;29.03;;;;;;;10.11;100.00;95493.63;5034532;28;20206;-77
2022/11/01 06:05:07;;;;;;;54.93;29.70;;;;;;;10.19;100.00;95506.47;5021285;28;20276;-78
2022/11/01 06:07:36;;;;;;;55.70;29.57;;;;;;;10.17;100.00;95501.47;5021853;28;20247;-77
2022/11/01 06:10:04;;;;;;;61.03;29.60;;;;;;;10.24;100.00;95502.28;5025059;28;20848;-79
2022/11/01 06:12:31;;;;;;;49.80;29.70;;;;;;;10.23;100.00;95494.69;5032745;28;20690;-77
2022/11/01 06:14:58;;;;;;;54.77;29.67;;;;;;;10.36;100.00;95510.31;5032328;28;20190;-78
2022/11/01 06:17:25;;;;;;;59.00;29.27;;;;;;;10.31;100.00;95510.09;5033209;28;20186;-78
2022/11/01 06:19:52;;;;;;;57.20;30.13;;;;;;;10.17;100.00;95508.47;5033014;28;20283;-79
2022/11/01 06:22:18;;;;;;;61.10;31.50;;;;;;;10.00;100.00;95518.34;5030048;28;20203;-78
2022/11/01 06:24:46;;;;;;;62.63;30.57;;;;;;;9.55;100.00;95511.91;5032955;28;20195;-77
2022/11/01 06:27:13;;;;;;;65.57;33.93;;;;;;;9.45;100.00;95508.03;5032858;28;20207;-78
2022/11/01 06:29:40;;;;;;;70.87;33.10;;;;;;;9.43;100.00;95513.44;5033152;28;20195;-78
2022/11/01 06:32:07;;;;;;;64.70;33.90;;;;;;;9.53;100.00;95507.88;5032499;28;20280;-78
2022/11/01 06:34:34;;;;;;;65.23;35.80;;;;;;;9.68;100.00;95509.41;5032884;28;20961;-78
2022/11/01 06:37:01;;;;;;;65.30;35.60;;;;;;;9.58;100.00;95501.13;5033655;28;20597;-79
2022/11/01 06:39:28;;;;;;;62.53;33.33;;;;;;;9.74;100.00;95520.81;5034565;28;20203;-79
2022/11/01 06:41:57;;;;;;;48.80;27.53;;;;;;;9.89;100.00;95510.31;5032333;28;20905;-79
2022/11/01 06:44:24;;;;;;;44.60;24.93;;;;;;;10.07;100.00;95518.41;5032058;28;20240;-80
2022/11/01 06:46:52;;;;;;;47.47;23.30;;;;;;;10.20;100.00;95515.88;5031759;28;20214;-79
2022/11/01 06:49:19;;;;;;;43.17;22.77;;;;;;;10.36;100.00;95512.91;5032269;28;20191;-79
2022/11/01 06:51:46;;;;;;;42.30;22.97;;;;;;;10.55;100.00;95521.78;5029622;28;20764;-77
2022/11/01 06:54:13;;;;;;;44.13;21.10;;;;;;;10.63;100.00;95517.19;5031196;28;20202;-79
2022/11/01 06:56:40;;;;;;;33.37;20.03;;;;;;;10.73;100.00;95516.84;5032516;28;20190;-79
2022/11/01 06:59:09;;;;;;;38.53;19.53;;;;;;;10.87;100.00;95515.06;5032032;28;20199;-80
2022/11/01 07:01:35;;;;;;;37.47;20.30;;;;;;;11.01;100.00;95521.88;5031326;28;20207;-79
2022/11/01 07:04:03;;;;;;;41.13;20.60;;;;;;;11.12;100.00;95522.06;5031124;28;20195;-78
2022/11/01 07:06:30;;;;;;;40.07;21.23;;;;;;;11.21;100.00;95518.28;5025327;28;20696;-78
2022/11/01 07:08:58;;;;;;;39.73;20.23;;;;;;;11.32;100.00;95520.28;5030539;28;20658;-78
2022/11/01 07:11:25;;;;;;;42.70;21.70;;;;;;;11.37;100.00;95517.88;5031159;28;20194;-80
2022/11/01 07:13:52;;;;;;;38.77;21.63;;;;;;;11.47;100.00;95514.06;5030180;28;20346;-79
2022/11/01 07:16:21;;;;;;;36.53;21.63;;;;;;;11.52;100.00;95519.44;5032125;28;20187;-78
2022/11/01 07:18:48;;;;;;;37.57;21.67;;;;;;;11.45;100.00;95523.88;5031522;28;20205;-78
2022/11/01 07:21:14;;;;;;;45.93;21.73;;;;;;;11.27;100.00;95516.69;5031945;28;20211;-82
2022/11/01 07:23:41;;;;;;;36.13;21.83;;;;;;;11.16;100.00;95518.09;5022523;28;20218;-82
2022/11/01 07:26:08;;;;;;;49.37;22.20;;;;;;;11.23;100.00;95518.06;5029387;28;20313;-81
2022/11/01 07:28:35;;;;;;;39.87;22.60;;;;;;;11.44;100.00;95522.28;5029111;28;20198;-81
2022/11/01 07:31:02;;;;;;;45.60;22.70;;;;;;;11.60;100.00;95517.44;5029502;28;20198;-81
2022/11/01 07:33:30;;;;;;;39.10;23.17;;;;;;;11.78;100.00;95520.25;5030126;28;20186;-80
2022/11/01 07:35:57;;;;;;;54.23;23.60;;;;;;;11.87;100.00;95518.22;5031073;28;20202;-82
2022/11/01 07:38:31;;;;;;;39.47;22.50;;;;;;;12.00;99.77;95518.22;5014385;28;20192;-83
2022/11/01 07:40:58;;;;;;;44.97;22.70;;;;;;;12.14;98.86;95524.16;5033620;28;20207;-81
2022/11/01 07:43:25;;;;;;;47.43;23.20;;;;;;;12.23;98.96;95526.34;5036378;28;20195;-84
2022/11/01 07:45:52;;;;;;;41.70;22.90;;;;;;;12.32;98.43;95519.88;5038377;28;20227;-83
2022/11/01 07:48:19;;;;;;;40.77;21.90;;;;;;;12.43;97.85;95523.66;5037836;28;20192;-84
2022/11/01 07:50:59;;;;;;;39.07;21.97;;;;;;;12.51;97.16;95520.81;5036140;28;20197;-85
2022/11/01 07:53:26;;;;;;;47.60;23.73;;;;;;;12.67;97.22;95525.53;5035303;28;20283;-83
2022/11/01 07:55:53;;;;;;;41.03;22.67;;;;;;;12.65;96.15;95496.25;5018011;28;20269;-85
2022/11/01 07:58:23;;;;;;;43.80;23.50;;;;;;;12.86;95.59;95508.16;5017784;28;20199;-82
2022/11/01 08:00:50;;;;;;;49.40;23.63;;;;;;;12.96;94.80;95511.91;5017666;28;20705;-83
2022/11/01 08:03:21;;;;;;;38.47;23.33;;;;;;;13.04;94.97;95519.47;5029555;28;20206;-83
2022/11/01 08:05:49;;;;;;;46.83;24.30;;;;;;;12.67;95.12;95507.25;5032308;28;20579;-80
2022/11/01 08:08:16;;;;;;;42.47;23.57;;;;;;;12.30;97.27;95515.88;5033376;28;20309;-81
2022/11/01 08:10:43;;;;;;;44.10;24.20;;;;;;;12.31;97.13;95517.50;5031538;28;20202;-81
2022/11/01 08:13:15;;;;;;;51.23;24.63;;;;;;;12.42;98.76;95514.22;5029509;28;20249;-79
2022/11/01 08:15:43;;;;;;;53.87;25.17;;;;;;;12.60;98.07;95508.31;5026100;28;20199;-81
2022/11/01 08:18:09;;;;;;;42.70;25.37;;;;;;;12.81;96.05;95511.41;5025736;28;20198;-81
2022/11/01 08:20:37;;;;;;;43.07;23.90;;;;;;;13.04;95.09;95503.81;5029345;28;20195;-82
2022/11/01 08:23:05;;;;;;;42.47;23.20;;;;;;;13.19;94.50;95493.09;5029191;28;20199;-80
2022/11/01 08:25:32;;;;;;;54.60;20.93;;;;;;;13.45;93.37;95503.31;5019324;28;20219;-80
2022/11/01 08:28:02;;;;;;;50.40;21.87;;;;;;;13.60;92.78;95501.19;5029332;28;20218;-86
2022/11/01 08:30:29;;;;;;;34.20;19.77;;;;;;;13.79;91.87;95496.78;5025430;28;20187;-83
2022/11/01 08:32:59;;;;;;;32.80;19.17;;;;;;;13.81;91.51;95478.28;5033119;28;20229;-85
2022/11/01 08:35:26;;;;;;;35.53;20.67;;;;;;;14.04;89.84;95484.44;5033955;28;20256;-83
2022/11/01 08:37:54;;;;;;;41.63;22.17;;;;;;;14.18;89.42;95496.34;5032969;28;20278;-83
2022/11/01 08:40:22;;;;;;;37.23;21.53;;;;;;;14.29;88.64;95489.56;5033304;28;20194;-85
2022/11/01 08:42:49;;;;;;;41.67;22.37;;;;;;;14.39;87.90;95487.28;5027140;28;20187;-78
2022/11/01 08:45:17;;;;;;;41.63;22.27;;;;;;;14.54;86.70;95487.69;5030879;28;20227;-80
2022/11/01 08:47:44;;;;;;;48.23;22.77;;;;;;;14.36;87.59;95479.88;5031126;28;20293;-78
2022/11/01 08:50:13;;;;;;;41.80;22.40;;;;;;;14.11;88.90;95487.00;5028134;28;20186;-80
2022/11/01 08:52:41;;;;;;;40.87;23.63;;;;;;;14.08;89.53;95490.03;5030532;28;20769;-79
2022/11/01 08:55:09;;;;;;;40.67;22.30;;;;;;;14.22;89.07;95494.09;5031244;28;20249;-81
2022/11/01 08:57:38;;;;;;;39.57;22.30;;;;;;;14.53;88.80;95495.75;5028128;28;20218;-80
2022/11/01 09:00:06;;;;;;;39.83;21.63;;;;;;;15.11;86.66;95482.84;5022676;28;20214;-82
2022/11/01 09:02:33;;;;;;;45.30;21.23;;;;;;;16.00;83.85;95484.34;5031312;28;20194;-80
2022/11/01 09:05:04;;;;;;;40.53;20.27;;;;;;;16.93;78.73;95487.50;5033095;28;20248;-80
2022/11/01 09:07:30;;;;;;;35.63;19.87;;;;;;;17.86;76.01;95485.03;5028899;28;20948;-82
2022/11/01 09:09:57;;;;;;;43.07;20.77;;;;;;;18.75;72.12;95485.63;5019445;28;20202;-83
2022/11/01 09:12:31;;;;;;;41.03;18.20;;;;;;;19.44;68.67;95475.19;5029213;28;20199;-84
2022/11/01 09:15:04;;;;;;;26.83;17.58;;;;;;;20.24;65.53;95490.69;5016192;28;20180;-83
2022/11/01 09:17:33;;;;;;;33.53;18.13;;;;;;;20.78;63.93;95483.25;5022173;28;20202;-83
2022/11/01 09:20:01;;;;;;;41.97;18.73;;;;;;;21.43;61.89;95493.16;5020835;28;20187;-82
2022/11/01 09:22:27;;;;;;;32.90;18.08;;;;;;;21.67;60.09;95485.47;5030407;28;20269;-83
2022/11/01 09:24:57;;;;;;;33.97;18.00;;;;;;;22.04;59.12;95485.97;5032257;28;20293;-82
2022/11/01 09:27:25;;;;;;;32.75;17.52;;;;;;;22.74;57.91;95482.25;5031531;28;20265;-84
2022/11/01 09:29:51;;;;;;;31.35;17.92;;;;;;;23.47;54.47;95499.06;5026614;28;20195;-81
2022/11/01 09:32:20;;;;;;;31.83;16.27;;;;;;;24.01;53.11;95490.09;5030070;28;20205;-82
2022/11/01 09:34:47;;;;;;;42.17;18.20;;;;;;;22.77;55.16;95483.59;5027591;28;20218;-82
2022/11/01 09:37:14;;;;;;;32.83;18.00;;;;;;;21.36;58.90;95474.09;5031261;28;20223;-82
2022/11/01 09:39:41;;;;;;;39.85;17.17;;;;;;;20.95;61.76;95473.25;5028235;28;20203;-79
2022/11/01 09:42:19;;;;;;;36.53;17.65;;;;;;;22.33;58.81;95471.03;5032828;28;20221;-80
2022/11/01 09:44:51;;;;;;;35.00;16.90;;;;;;;23.56;54.29;95470.84;5017244;28;20258;-79
2022/11/01 09:47:22;;;;;;;38.03;16.80;;;;;;;24.39;51.54;95475.06;5035117;28;20206;-82
2022/11/01 09:49:57;;;;;;;34.17;18.00;;;;;;;25.19;48.79;95476.69;5028316;28;20245;-80
2022/11/01 09:52:25;;;;;;;38.53;17.42;;;;;;;25.46;47.74;95475.97;5033666;28;20193;-81
2022/11/01 09:54:52;;;;;;;30.98;16.70;;;;;;;25.61;47.34;95457.13;5032945;28;20198;-82
2022/11/01 09:57:22;;;;;;;33.25;16.48;;;;;;;26.21;45.77;95460.56;5035561;28;20187;-80
2022/11/01 10:00:02;;;;;;;35.40;17.17;;;;;;;26.99;44.56;95472.84;5034372;28;20206;-82
2022/11/01 10:03:04;;;;;;;32.97;17.63;;;;;;;27.67;41.63;95461.94;5028304;28;20199;-81
2022/11/01 10:05:56;;;;;;;33.72;16.75;;;;;;;28.15;40.98;95472.75;5031659;28;20197;-81
2022/11/01 10:08:44;;;;;;;31.10;15.80;;;;;;;28.56;39.57;95469.72;5030621;28;20211;-81
2022/11/01 10:11:29;;;;;;;37.35;17.15;;;;;;;29.11;38.27;95470.78;5028898;28;20187;-82
2022/11/01 10:14:09;;;;;;;33.85;16.13;;;;;;;29.44;37.46;95468.44;5029886;28;20196;-82
2022/11/01 10:16:40;;;;;;;32.00;16.70;;;;;;;29.68;35.86;95468.72;5032410;28;20213;-82
2022/11/01 10:19:25;;;;;;;31.52;16.27;;;;;;;30.19;35.91;95457.06;5028490;28;20213;-82
2022/11/01 10:22:06;;;;;;;34.25;17.40;;;;;;;30.46;34.52;95460.47;5032504;28;20258;-82
2022/11/01 10:24:39;;;;;;;35.55;15.90;;;;;;;30.63;34.32;95447.72;5027976;28;20189;-82
2022/11/01 10:27:18;;;;;;;35.80;16.67;;;;;;;30.22;33.96;95461.78;5025603;28;20204;-84
2022/11/01 10:29:50;;;;;;;38.78;16.40;;;;;;;30.00;34.00;95450.53;5031295;28;20195;-85
2022/11/01 10:32:31;;;;;;;30.92;16.05;;;;;;;29.99;34.47;95447.06;5034164;28;20187;-84
2022/11/01 10:35:05;;;;;;;30.02;15.52;;;;;;;30.19;34.44;95438.28;5026502;28;20179;-83
2022/11/01 10:37:40;;;;;;;28.90;15.20;;;;;;;30.29;34.60;95440.63;5030013;28;20190;-83
2022/11/01 10:40:13;;;;;;;33.35;16.40;;;;;;;30.54;33.81;95451.56;5017671;28;20253;-84
2022/11/01 10:42:41;;;;;;;37.20;15.90;;;;;;;30.78;33.05;95446.38;5029140;28;20298;-82
2022/11/01 10:45:15;;;;;;;30.10;15.85;;;;;;;30.94;32.57;95417.84;5028077;28;20237;-83
2022/11/01 10:47:42;;;;;;;29.45;14.77;;;;;;;30.91;32.83;95435.38;5034078;28;20210;-81
2022/11/01 10:50:21;;;;;;;31.80;14.68;;;;;;;31.22;31.92;95436.91;5035427;28;20194;-84
2022/11/01 10:52:51;;;;;;;29.45;15.80;;;;;;;31.32;31.22;95433.81;5032682;28;20266;-81
2022/11/01 10:55:24;;;;;;;32.60;15.45;;;;;;;30.30;32.28;95426.09;5032439;28;20203;-80
2022/11/01 10:57:56;;;;;;;28.05;15.30;;;;;;;30.25;33.04;95414.75;5032390;28;20257;-80
2022/11/01 11:00:23;;;;;;;27.10;14.07;;;;;;;30.46;32.58;95412.16;5032347;28;20226;-81
2022/11/01 11:02:55;;;;;;;34.03;15.40;;;;;;;30.80;31.83;95418.09;5014409;28;20207;-85
2022/11/01 11:05:25;;;;;;;26.95;14.43;;;;;;;31.19;31.10;95421.44;5028833;28;20224;-83
2022/11/01 11:07:53;;;;;;;26.98;13.18;;;;;;;31.52;31.22;95421.47;5021705;28;20235;-85
2022/11/01 11:10:23;;;;;;;36.97;14.32;;;;;;;31.70;30.50;95409.44;5023879;28;20195;-81
2022/11/01 11:12:53;;;;;;;29.02;13.65;;;;;;;31.79;30.47;95410.13;5034349;28;20190;-84
2022/11/01 11:15:39;;;;;;;31.05;14.02;;;;;;;32.05;30.02;95418.72;5033355;28;20637;-84
2022/11/01 11:18:18;;;;;;;34.03;14.55;;;;;;;32.07;30.40;95408.38;5033627;28;20197;-85
2022/11/01 11:20:51;;;;;;;26.02;13.90;;;;;;;32.26;29.80;95399.78;5033009;28;20797;-85
2022/11/01 11:23:20;;;;;;;40.03;14.00;;;;;;;32.24;29.18;95408.16;5033877;28;20265;-83
2022/11/01 11:25:49;;;;;;;31.02;15.50;;;;;;;32.35;29.96;95406.59;5035247;28;20198;-84
2022/11/01 11:28:29;;;;;;;36.38;14.75;;;;;;;32.40;28.99;95406.38;5035208;28;20296;-85
2022/11/01 11:30:56;;;;;;;27.17;12.88;;;;;;;32.57;28.34;95402.69;5027399;28;20199;-87
2022/11/01 11:33:23;;;;;;;23.40;12.10;;;;;;;32.66;28.26;95410.66;5023134;28;20217;-84
2022/11/01 11:35:58;;;;;;;28.98;12.68;;;;;;;32.53;28.66;95404.44;5035729;28;20667;-83
2022/11/01 11:38:42;;;;;;;29.65;12.27;;;;;;;32.54;28.96;95397.94;5035935;28;20208;-86
2022/11/01 11:41:28;;;;;;;28.25;11.70;;;;;;;32.75;28.80;95395.16;5021633;28;20202;-85
2022/11/01 11:43:55;;;;;;;23.85;11.90;;;;;;;32.72;28.87;95391.22;5034993;28;20330;-84
2022/11/01 11:46:23;;;;;;;23.60;11.02;;;;;;;32.94;28.40;95379.94;5037441;28;20257;-82
2022/11/01 11:48:52;;;;;;;31.85;11.60;;;;;;;32.91;27.39;95387.91;5029793;28;20446;-84
2022/11/01 11:51:21;;;;;;;23.98;11.38;;;;;;;32.99;28.39;95393.16;5023574;28;20202;-83
2022/11/01 11:54:15;;;;;;;25.33;10.63;;;;;;;32.69;28.23;95391.91;5032029;28;20199;-84
2022/11/01 11:56:43;;;;;;;29.80;11.23;;;;;;;32.52;27.89;95386.75;5032261;28;20195;-86
2022/11/01 11:59:19;;;;;;;38.30;10.98;;;;;;;32.22;28.97;95364.66;5033779;28;20202;-85
2022/11/01 12:01:47;;;;;;;29.23;11.25;;;;;;;32.66;27.53;95383.72;5037015;28;20203;-86
2022/11/01 12:04:17;;;;;;;21.55;10.05;;;;;;;32.85;27.40;95375.78;5030998;28;20234;-88
2022/11/01 12:06:47;;;;;;;26.77;10.75;;;;;;;33.02;28.22;95376.31;5025359;28;20583;-85
2022/11/01 12:09:38;;;;;;;27.38;11.27;;;;;;;33.24;26.61;95371.53;5028033;28;20222;-85
2022/11/01 12:12:07;;;;;;;21.88;10.27;;;;;;;33.39;26.08;95374.25;5023865;28;20647;-84
2022/11/01 12:14:37;;;;;;;28.50;10.82;;;;;;;33.28;26.63;95369.69;5036650;28;20257;-85
2022/11/01 12:17:26;;;;;;;22.45;10.00;;;;;;;33.43;26.82;95364.34;5039661;28;20186;-84
2022/11/01 12:20:00;;;;;;;27.02;9.93;;;;;;;33.41;26.68;95349.66;5037041;28;20206;-87
2022/11/01 12:22:33;;;;;;;24.42;9.40;;;;;;;33.71;26.23;95361.63;5037729;28;20625;-86
2022/11/01 12:25:04;;;;;;;33.30;10.57;;;;;;;33.54;26.02;95349.22;5026374;28;20195;-85
2022/11/01 12:27:34;;;;;;;29.45;10.45;;;;;;;33.23;26.62;95345.69;5033277;28;20219;-85
2022/11/01 12:30:09;;;;;;;23.15;10.18;;;;;;;32.95;27.88;95335.69;5041338;28;20228;-87
2022/11/01 12:32:43;;;;;;;23.10;10.15;;;;;;;33.13;27.45;95348.91;5027397;28;20811;-86
2022/11/01 12:35:21;;;;;;;30.42;9.82;;;;;;;33.17;26.75;95336.28;5024786;28;20202;-86
2022/11/01 12:37:59;;;;;;;22.98;9.82;;;;;;;33.45;26.56;95334.38;5024074;28;20195;-85
2022/11/01 12:40:30;;;;;;;27.42;9.27;;;;;;;33.90;25.52;95344.75;5023673;28;20211;-85
2022/11/01 12:43:02;;;;;;;22.88;9.00;;;;;;;34.17;26.20;95347.34;5024805;28;20198;-84
2022/11/01 12:45:33;;;;;;;23.90;9.45;;;;;;;34.55;25.75;95349.34;5025323;28;20230;-81
2022/11/01 12:48:07;;;;;;;18.98;8.68;;;;;;;34.81;24.49;95348.00;5026291;28;20650;-82
2022/11/01 12:50:43;;;;;;;18.95;8.95;;;;;;;34.82;25.08;95339.53;5023209;28;20191;-81
2022/11/01 12:53:16;;;;;;;24.52;9.18;;;;;;;34.61;24.02;95345.28;5027553;28;20198;-85
2022/11/01 12:55:43;;;;;;;25.23;8.93;;;;;;;34.63;23.89;95345.69;5023927;28;20298;-84
2022/11/01 12:58:13;;;;;;;30.48;9.07;;;;;;;34.71;24.29;95341.25;5024090;28;20552;-84
2022/11/01 13:00:54;;;;;;;25.67;9.57;;;;;;;34.88;24.11;95343.53;5022091;28;20673;-85
2022/11/01 13:03:32;;;;;;;26.27;9.20;;;;;;;34.96;23.65;95342.53;5022063;28;20275;-83
2022/11/01 13:06:06;;;;;;;22.23;8.25;;;;;;;34.84;24.09;95334.56;5028988;28;20203;-85
2022/11/01 13:08:44;;;;;;;24.70;8.75;;;;;;;34.91;23.76;95340.13;5027532;28;20228;-84
2022/11/01 13:11:24;;;;;;;27.70;7.80;;;;;;;35.00;23.49;95342.59;5024682;28;20199;-82
2022/11/01 13:13:59;;;;;;;20.77;8.65;;;;;;;35.06;24.02;95346.59;5026855;28;20635;-83
2022/11/01 13:16:31;;;;;;;22.33;8.63;;;;;;;35.24;23.30;95345.00;5028130;28;20277;-85
2022/11/01 13:19:04;;;;;;;24.98;9.07;;;;;;;35.11;23.63;95341.69;5027837;28;20608;-84
2022/11/01 13:21:37;;;;;;;24.70;8.60;;;;;;;35.05;23.72;95339.59;5030908;28;20206;-82
2022/11/01 13:24:16;;;;;;;23.30;8.45;;;;;;;34.99;23.30;95338.31;5016578;28;20210;-82